Time;durP1;ratioP1;P1;durP2;ratioP2;P2;SDS_P1;SDS_P2;PMS_P1;PMS_P2;Temp;Humidity;BMP_temperature;BMP_pressure;BME280_temperature;BME280_humidity;BME280_pressure;Samples;Min_cycle;Max_cycle;Signal;HPM_P1;HPM_P2
2021/06/06 00:02:04;;;;;;;123.90;27.77;;;;;;;;;;4963270;28;20042;-57
2021/06/06 00:04:34;;;;;;;123.90;27.40;;;;;;;;;;4949646;28;20046;-58
2021/06/06 00:07:00;;;;;;;114.18;27.48;;;;;;;;;;4967138;28;20038;-58
2021/06/06 00:09:30;;;;;;;113.57;29.05;;;;;;;;;;4948453;28;20030;-57
2021/06/06 00:12:01;;;;;;;128.40;28.13;;;;;;;;;;4950374;28;20049;-57
2021/06/06 00:14:27;;;;;;;115.57;28.90;;;;;;;;;;4951576;28;20034;-58
2021/06/06 00:16:59;;;;;;;104.18;28.42;;;;;;;;;;4964068;28;20038;-57
2021/06/06 00:19:25;;;;;;;117.47;27.52;;;;;;;;;;4965861;28;20765;-57
2021/06/06 00:21:55;;;;;;;114.13;27.77;;;;;;;;;;4947643;28;20035;-57
2021/06/06 00:24:22;;;;;;;97.95;26.55;;;;;;;;;;4964804;28;20157;-58
2021/06/06 00:26:50;;;;;;;102.22;27.83;;;;;;;;;;4949130;28;20034;-58
2021/06/06 00:29:18;;;;;;;115.38;29.55;;;;;;;;;;4949448;28;20102;-58
2021/06/06 00:31:43;;;;;;;111.10;27.80;;;;;;;;;;4963098;28;20046;-56
2021/06/06 00:34:09;;;;;;;101.97;25.98;;;;;;;;;;4966738;28;20094;-57
2021/06/06 00:36:36;;;;;;;108.05;28.83;;;;;;;;;;4966119;28;20030;-58
2021/06/06 00:39:08;;;;;;;111.97;29.42;;;;;;;;;;4949213;28;20043;-57
2021/06/06 00:41:36;;;;;;;105.18;26.25;;;;;;;;;;4946470;28;20042;-57
2021/06/06 00:44:07;;;;;;;100.40;27.48;;;;;;;;;;4966809;28;20038;-57
2021/06/06 00:46:32;;;;;;;95.57;28.88;;;;;;;;;;4966429;28;20577;-57
2021/06/06 00:49:02;;;;;;;112.68;28.65;;;;;;;;;;4966779;28;20498;-58
2021/06/06 00:51:30;;;;;;;96.40;29.35;;;;;;;;;;4963488;28;20253;-58
2021/06/06 00:53:59;;;;;;;114.68;30.02;;;;;;;;;;4947242;28;20042;-57
2021/06/06 00:56:29;;;;;;;102.10;29.48;;;;;;;;;;4955352;28;20026;-57
2021/06/06 00:58:58;;;;;;;108.25;28.17;;;;;;;;;;4946545;28;20663;-57
2021/06/06 01:01:25;;;;;;;98.63;26.58;;;;;;;;;;4962963;28;20045;-57
2021/06/06 01:03:52;;;;;;;108.25;27.80;;;;;;;;;;4945005;28;20062;-58
2021/06/06 01:06:30;;;;;;;98.03;27.85;;;;;;;;;;4960136;28;20042;-56
2021/06/06 01:08:58;;;;;;;90.68;28.73;;;;;;;;;;4948038;28;20039;-57
2021/06/06 01:11:33;;;;;;;97.35;28.95;;;;;;;;;;4943376;28;20602;-58
2021/06/06 01:14:00;;;;;;;95.75;28.92;;;;;;;;;;4946348;28;20035;-57
2021/06/06 01:16:30;;;;;;;99.90;30.70;;;;;;;;;;4943933;28;20153;-58
2021/06/06 01:18:59;;;;;;;99.75;29.58;;;;;;;;;;4946982;28;20022;-57
2021/06/06 01:21:50;;;;;;;114.32;29.17;;;;;;;;;;4943065;28;20122;-57
2021/06/06 01:24:22;;;;;;;94.35;27.15;;;;;;;;;;4944508;28;21984;-57
2021/06/06 01:26:49;;;;;;;94.95;30.83;;;;;;;;;;4944710;28;20062;-57
2021/06/06 01:29:23;;;;;;;91.85;28.52;;;;;;;;;;4945352;28;20125;-60
2021/06/06 01:31:51;;;;;;;89.38;30.15;;;;;;;;;;4946130;28;20070;-58
2021/06/06 01:34:18;;;;;;;95.25;29.17;;;;;;;;;;4945486;28;20097;-58
2021/06/06 01:36:59;;;;;;;99.63;28.73;;;;;;;;;;4946529;28;20030;-57
2021/06/06 01:39:30;;;;;;;102.22;28.67;;;;;;;;;;4947810;28;20039;-57
2021/06/06 01:41:59;;;;;;;108.15;30.35;;;;;;;;;;4928067;28;20045;-57
2021/06/06 01:44:29;;;;;;;107.18;30.40;;;;;;;;;;4944835;28;20305;-57
2021/06/06 01:46:58;;;;;;;104.15;30.08;;;;;;;;;;4959495;28;20897;-58
2021/06/06 01:49:24;;;;;;;89.60;27.55;;;;;;;;;;4947424;28;20514;-56
2021/06/06 01:51:54;;;;;;;93.70;27.58;;;;;;;;;;4944549;28;20050;-59
2021/06/06 01:54:21;;;;;;;85.85;27.38;;;;;;;;;;4956669;28;20665;-57
2021/06/06 01:56:48;;;;;;;94.38;28.55;;;;;;;;;;4947328;28;20030;-57
2021/06/06 01:59:18;;;;;;;82.47;28.20;;;;;;;;;;4945332;28;20459;-58
2021/06/06 02:01:44;;;;;;;80.18;28.58;;;;;;;;;;4926329;28;20517;-58
2021/06/06 02:04:09;;;;;;;89.05;28.77;;;;;;;;;;4959409;28;20050;-56
2021/06/06 02:06:41;;;;;;;80.53;30.27;;;;;;;;;;4961765;28;20053;-57
2021/06/06 02:09:08;;;;;;;77.20;28.15;;;;;;;;;;4964635;28;20060;-56
2021/06/06 02:11:40;;;;;;;85.15;28.02;;;;;;;;;;4962773;28;20034;-58
2021/06/06 02:14:09;;;;;;;71.53;30.10;;;;;;;;;;4946959;28;20041;-57
2021/06/06 02:16:40;;;;;;;73.93;29.48;;;;;;;;;;4960520;28;20035;-56
2021/06/06 02:19:08;;;;;;;85.88;30.27;;;;;;;;;;4962823;28;20034;-59
2021/06/06 02:21:36;;;;;;;65.15;28.13;;;;;;;;;;4947869;28;20034;-57
2021/06/06 02:24:02;;;;;;;76.15;29.35;;;;;;;;;;4962051;28;20041;-57
2021/06/06 02:26:37;;;;;;;76.15;31.00;;;;;;;;;;4963608;28;20049;-57
2021/06/06 02:29:10;;;;;;;79.28;28.83;;;;;;;;;;4944257;28;20034;-57
2021/06/06 02:31:36;;;;;;;71.75;27.85;;;;;;;;;;4943989;28;20054;-57
2021/06/06 02:34:08;;;;;;;80.75;31.05;;;;;;;;;;4947904;28;20925;-58
2021/06/06 02:36:37;;;;;;;67.75;26.77;;;;;;;;;;4962557;28;20179;-58
2021/06/06 02:39:02;;;;;;;71.78;28.73;;;;;;;;;;4963810;28;20023;-56
2021/06/06 02:41:39;;;;;;;70.35;28.48;;;;;;;;;;4946386;28;20038;-57
2021/06/06 02:44:09;;;;;;;74.68;28.98;;;;;;;;;;4946663;28;20038;-57
2021/06/06 02:46:35;;;;;;;73.57;28.42;;;;;;;;;;4960233;28;20042;-57
2021/06/06 02:49:06;;;;;;;71.25;26.65;;;;;;;;;;4963281;28;20066;-56
2021/06/06 02:51:37;;;;;;;67.20;26.13;;;;;;;;;;4961232;28;20034;-57
2021/06/06 02:54:06;;;;;;;65.40;27.23;;;;;;;;;;4946455;28;20030;-57
2021/06/06 02:56:34;;;;;;;68.82;27.20;;;;;;;;;;4963009;28;20037;-57
2021/06/06 02:59:03;;;;;;;62.30;26.58;;;;;;;;;;4934530;28;20058;-57
2021/06/06 03:01:35;;;;;;;78.22;29.45;;;;;;;;;;4956206;28;20164;-56
2021/06/06 03:04:03;;;;;;;54.50;24.13;;;;;;;;;;4950733;28;20066;-57
2021/06/06 03:06:32;;;;;;;62.17;26.67;;;;;;;;;;4966846;28;20038;-56
2021/06/06 03:08:58;;;;;;;67.55;26.35;;;;;;;;;;4943692;28;20062;-57
2021/06/06 03:11:24;;;;;;;71.82;29.42;;;;;;;;;;4920546;28;20022;-55
2021/06/06 03:13:54;;;;;;;75.22;26.65;;;;;;;;;;4966527;28;20062;-58
2021/06/06 03:16:22;;;;;;;69.80;25.77;;;;;;;;;;4966245;28;21075;-57
2021/06/06 03:18:50;;;;;;;68.95;25.58;;;;;;;;;;4965918;28;22072;-56
2021/06/06 03:21:23;;;;;;;73.07;26.85;;;;;;;;;;4951506;28;20027;-56
2021/06/06 03:23:53;;;;;;;72.13;25.90;;;;;;;;;;4965499;28;20034;-56
2021/06/06 03:26:18;;;;;;;74.13;26.33;;;;;;;;;;4967275;28;20435;-57
2021/06/06 03:28:47;;;;;;;74.60;27.73;;;;;;;;;;4951715;28;20501;-57
2021/06/06 03:31:18;;;;;;;69.68;27.70;;;;;;;;;;4963858;28;20169;-63
2021/06/06 03:33:46;;;;;;;58.30;24.88;;;;;;;;;;4965066;28;20022;-61
2021/06/06 03:36:13;;;;;;;62.60;25.63;;;;;;;;;;4966278;28;20038;-58
2021/06/06 03:38:41;;;;;;;56.70;24.73;;;;;;;;;;4966804;28;20022;-58
2021/06/06 03:41:07;;;;;;;74.80;25.63;;;;;;;;;;4950085;28;20655;-60
2021/06/06 03:43:35;;;;;;;70.20;27.08;;;;;;;;;;4966782;28;20129;-57
2021/06/06 03:46:04;;;;;;;64.43;26.58;;;;;;;;;;4966564;28;20041;-57
2021/06/06 03:48:29;;;;;;;71.43;27.48;;;;;;;;;;4948626;28;20129;-59
2021/06/06 03:51:00;;;;;;;71.13;26.17;;;;;;;;;;4967340;28;20082;-59
2021/06/06 03:53:25;;;;;;;83.15;30.23;;;;;;;;;;4950578;28;20030;-57
2021/06/06 03:55:56;;;;;;;72.35;28.48;;;;;;;;;;4963662;28;20022;-57
2021/06/06 03:58:21;;;;;;;73.88;30.42;;;;;;;;;;4963963;28;20671;-58
2021/06/06 04:00:53;;;;;;;73.65;30.92;;;;;;;;;;4958645;28;20043;-58
2021/06/06 04:03:23;;;;;;;64.50;27.38;;;;;;;;;;4965670;28;20073;-57
2021/06/06 04:05:49;;;;;;;78.18;28.75;;;;;;;;;;4950248;28;20710;-57
2021/06/06 04:08:15;;;;;;;68.45;28.17;;;;;;;;;;4950561;28;20034;-58
2021/06/06 04:10:41;;;;;;;61.88;27.42;;;;;;;;;;4951263;28;20117;-57
2021/06/06 04:13:06;;;;;;;62.72;26.38;;;;;;;;;;4965741;28;20030;-58
2021/06/06 04:15:34;;;;;;;61.47;26.35;;;;;;;;;;4950026;28;20141;-57
2021/06/06 04:18:11;;;;;;;63.85;26.25;;;;;;;;;;4962082;28;20030;-58
2021/06/06 04:20:40;;;;;;;54.03;24.38;;;;;;;;;;4932266;28;20041;-57
2021/06/06 04:23:08;;;;;;;48.88;21.90;;;;;;;;;;4963980;28;20098;-57
2021/06/06 04:25:35;;;;;;;61.78;24.08;;;;;;;;;;4965132;28;20022;-57
2021/06/06 04:28:03;;;;;;;51.40;21.77;;;;;;;;;;4965190;28;20051;-56
2021/06/06 04:30:29;;;;;;;51.00;23.90;;;;;;;;;;4953935;28;20031;-57
2021/06/06 04:32:58;;;;;;;49.45;22.83;;;;;;;;;;4964960;28;20487;-58
2021/06/06 04:35:24;;;;;;;55.53;22.60;;;;;;;;;;4962010;28;20045;-60
2021/06/06 04:37:50;;;;;;;50.72;22.10;;;;;;;;;;4962036;28;20038;-57
2021/06/06 04:40:22;;;;;;;50.67;22.65;;;;;;;;;;4934238;28;20042;-57
2021/06/06 04:42:50;;;;;;;47.65;20.15;;;;;;;;;;4964502;28;20030;-57
2021/06/06 04:45:16;;;;;;;43.28;17.75;;;;;;;;;;4946668;28;20101;-58
2021/06/06 04:47:43;;;;;;;38.92;16.23;;;;;;;;;;4966165;28;20027;-57
2021/06/06 04:50:12;;;;;;;32.90;17.42;;;;;;;;;;4943944;28;20066;-57
2021/06/06 04:52:39;;;;;;;33.03;16.67;;;;;;;;;;4965640;28;20073;-56
2021/06/06 04:55:08;;;;;;;37.17;18.27;;;;;;;;;;4934550;28;20121;-57
2021/06/06 04:57:36;;;;;;;41.90;18.92;;;;;;;;;;4963171;28;20033;-56
2021/06/06 05:00:12;;;;;;;50.38;21.38;;;;;;;;;;4964733;28;20034;-58
2021/06/06 05:02:37;;;;;;;43.30;19.73;;;;;;;;;;4962688;28;20061;-58
2021/06/06 05:05:11;;;;;;;44.60;18.42;;;;;;;;;;4934221;28;20073;-56
2021/06/06 05:07:39;;;;;;;40.25;18.63;;;;;;;;;;4965761;28;20034;-57
2021/06/06 05:10:09;;;;;;;40.65;17.20;;;;;;;;;;4948393;28;20046;-56
2021/06/06 05:12:35;;;;;;;39.22;17.35;;;;;;;;;;4949175;28;20084;-56
2021/06/06 05:15:00;;;;;;;36.22;15.07;;;;;;;;;;4953936;28;20050;-56
2021/06/06 05:17:28;;;;;;;37.22;15.45;;;;;;;;;;4930331;28;20148;-57
2021/06/06 05:19:56;;;;;;;32.03;15.95;;;;;;;;;;4965637;28;20023;-58
2021/06/06 05:22:21;;;;;;;41.38;16.58;;;;;;;;;;4963414;28;20058;-58
2021/06/06 05:24:51;;;;;;;39.58;18.00;;;;;;;;;;4935121;28;20074;-57
2021/06/06 05:27:19;;;;;;;41.83;17.67;;;;;;;;;;4942436;28;20136;-57
2021/06/06 05:29:47;;;;;;;42.08;16.83;;;;;;;;;;4950325;28;20054;-57
2021/06/06 05:32:18;;;;;;;46.53;17.77;;;;;;;;;;4945902;28;20061;-57
2021/06/06 05:34:44;;;;;;;45.47;18.73;;;;;;;;;;4946203;28;20030;-57
2021/06/06 05:37:13;;;;;;;47.50;17.42;;;;;;;;;;4933602;28;20033;-56
2021/06/06 05:39:41;;;;;;;46.67;17.70;;;;;;;;;;4963968;28;20035;-57
2021/06/06 05:42:10;;;;;;;48.25;18.15;;;;;;;;;;4947972;28;20542;-57
2021/06/06 05:44:38;;;;;;;42.70;15.68;;;;;;;;;;4947076;28;20034;-57
2021/06/06 05:47:04;;;;;;;40.58;16.90;;;;;;;;;;4949137;28;20034;-58
2021/06/06 05:49:30;;;;;;;49.58;17.05;;;;;;;;;;4963965;28;20104;-58
2021/06/06 05:52:00;;;;;;;51.08;16.58;;;;;;;;;;4948933;28;20565;-57
2021/06/06 05:54:28;;;;;;;49.70;17.35;;;;;;;;;;4965190;28;20165;-58
2021/06/06 05:56:53;;;;;;;53.83;18.25;;;;;;;;;;4963003;28;21224;-58
2021/06/06 05:59:18;;;;;;;47.78;16.42;;;;;;;;;;4945060;28;20224;-57
2021/06/06 06:01:44;;;;;;;50.10;18.52;;;;;;;;;;4963377;28;20129;-57
2021/06/06 06:04:12;;;;;;;42.65;16.10;;;;;;;;;;4962470;28;20449;-57
2021/06/06 06:06:37;;;;;;;44.45;17.13;;;;;;;;;;4946892;28;20034;-56
2021/06/06 06:09:03;;;;;;;44.70;16.17;;;;;;;;;;4946679;28;20887;-56
2021/06/06 06:11:34;;;;;;;39.33;14.57;;;;;;;;;;4946120;28;20719;-56
2021/06/06 06:14:04;;;;;;;38.83;14.18;;;;;;;;;;4946800;28;20069;-56
2021/06/06 06:16:40;;;;;;;46.33;15.60;;;;;;;;;;4961828;28;20109;-56
2021/06/06 06:19:07;;;;;;;40.35;13.20;;;;;;;;;;4963679;28;20049;-57
2021/06/06 06:21:35;;;;;;;43.90;14.68;;;;;;;;;;4963474;28;20037;-57
2021/06/06 06:24:01;;;;;;;35.33;12.40;;;;;;;;;;4946975;28;20042;-57
2021/06/06 06:26:29;;;;;;;35.00;12.35;;;;;;;;;;4963875;28;20581;-56
2021/06/06 06:28:57;;;;;;;39.38;13.48;;;;;;;;;;4961517;28;20034;-56
2021/06/06 06:31:27;;;;;;;33.00;11.95;;;;;;;;;;4945496;28;20098;-56
2021/06/06 06:33:56;;;;;;;42.13;14.57;;;;;;;;;;4945970;28;20113;-56
2021/06/06 06:36:22;;;;;;;39.60;14.35;;;;;;;;;;4943260;28;20184;-56
2021/06/06 06:38:52;;;;;;;39.22;14.60;;;;;;;;;;4964762;28;20030;-56
2021/06/06 06:41:19;;;;;;;32.20;13.05;;;;;;;;;;4961582;28;20031;-56
2021/06/06 06:43:49;;;;;;;43.92;15.27;;;;;;;;;;4963918;28;20121;-56
2021/06/06 06:46:15;;;;;;;41.65;13.57;;;;;;;;;;4960755;28;20225;-59
2021/06/06 06:48:41;;;;;;;35.80;14.25;;;;;;;;;;4944579;28;20042;-56
2021/06/06 06:51:09;;;;;;;42.55;14.00;;;;;;;;;;4945925;28;20161;-56
2021/06/06 06:53:34;;;;;;;39.60;14.50;;;;;;;;;;4952442;28;20042;-56
2021/06/06 06:56:06;;;;;;;44.78;14.68;;;;;;;;;;4963131;28;20038;-56
2021/06/06 06:58:32;;;;;;;43.25;15.25;;;;;;;;;;4964343;28;20038;-55
2021/06/06 07:01:02;;;;;;;39.03;15.25;;;;;;;;;;4944724;28;20034;-56
2021/06/06 07:03:29;;;;;;;45.25;17.38;;;;;;;;;;4958397;28;20078;-57
2021/06/06 07:05:55;;;;;;;42.30;17.23;;;;;;;;;;4960258;28;20046;-57
2021/06/06 07:08:25;;;;;;;47.20;16.52;;;;;;;;;;4964617;28;20038;-57
2021/06/06 07:10:51;;;;;;;47.72;16.70;;;;;;;;;;4962899;28;20029;-57
2021/06/06 07:13:19;;;;;;;43.53;15.02;;;;;;;;;;4946815;28;20027;-57
2021/06/06 07:15:50;;;;;;;43.45;16.58;;;;;;;;;;4945352;28;20770;-57
2021/06/06 07:18:21;;;;;;;41.03;16.20;;;;;;;;;;4962914;28;20027;-57
2021/06/06 07:20:49;;;;;;;42.17;16.20;;;;;;;;;;4963211;28;20346;-57
2021/06/06 07:23:15;;;;;;;37.95;16.70;;;;;;;;;;4927510;28;22179;-56
2021/06/06 07:25:41;;;;;;;45.28;15.90;;;;;;;;;;4961925;28;20030;-57
2021/06/06 07:28:10;;;;;;;39.70;15.93;;;;;;;;;;4941431;28;20080;-56
2021/06/06 07:30:37;;;;;;;47.90;17.10;;;;;;;;;;4945119;28;20104;-56
2021/06/06 07:33:04;;;;;;;43.38;15.57;;;;;;;;;;4963217;28;20043;-56
2021/06/06 07:35:30;;;;;;;34.80;13.85;;;;;;;;;;4962510;28;20035;-57
2021/06/06 07:37:58;;;;;;;40.60;17.60;;;;;;;;;;4961130;28;20045;-57
2021/06/06 07:40:26;;;;;;;35.53;15.48;;;;;;;;;;4946831;28;20164;-57
2021/06/06 07:42:54;;;;;;;33.92;15.90;;;;;;;;;;4949278;28;20062;-57
2021/06/06 07:45:20;;;;;;;32.33;14.40;;;;;;;;;;4964781;28;20098;-57
2021/06/06 07:47:47;;;;;;;38.03;14.48;;;;;;;;;;4966634;28;20081;-56
2021/06/06 07:50:15;;;;;;;37.70;14.85;;;;;;;;;;4933894;28;20066;-56
2021/06/06 07:52:43;;;;;;;40.78;15.57;;;;;;;;;;4949226;28;20030;-57
2021/06/06 07:55:15;;;;;;;37.17;16.17;;;;;;;;;;4965821;28;20026;-57
2021/06/06 07:57:41;;;;;;;33.88;16.20;;;;;;;;;;4967331;28;20038;-57
2021/06/06 08:00:13;;;;;;;34.50;15.02;;;;;;;;;;4947846;28;20089;-57
2021/06/06 08:02:41;;;;;;;27.20;12.35;;;;;;;;;;4950196;28;20026;-57
2021/06/06 08:05:08;;;;;;;33.60;13.18;;;;;;;;;;4965771;28;20128;-57
2021/06/06 08:07:33;;;;;;;29.70;12.65;;;;;;;;;;4963570;28;20039;-57
2021/06/06 08:09:59;;;;;;;26.95;12.68;;;;;;;;;;4966311;28;20038;-56
2021/06/06 08:12:26;;;;;;;25.95;13.32;;;;;;;;;;4966302;28;20034;-57
2021/06/06 08:14:52;;;;;;;29.50;12.63;;;;;;;;;;4949616;28;20034;-56
2021/06/06 08:17:21;;;;;;;27.38;10.77;;;;;;;;;;4965095;28;20018;-56
2021/06/06 08:19:49;;;;;;;24.52;10.45;;;;;;;;;;4949542;28;20042;-57
2021/06/06 08:22:17;;;;;;;20.15;10.18;;;;;;;;;;4966874;28;20035;-57
2021/06/06 08:24:45;;;;;;;27.45;11.13;;;;;;;;;;4967399;28;20140;-56
2021/06/06 08:27:10;;;;;;;23.45;10.95;;;;;;;;;;4947653;28;20046;-58
2021/06/06 08:29:36;;;;;;;26.13;10.77;;;;;;;;;;4948296;28;20043;-57
2021/06/06 08:32:02;;;;;;;24.75;10.73;;;;;;;;;;4962936;28;20030;-57
2021/06/06 08:34:28;;;;;;;25.25;9.77;;;;;;;;;;4967808;28;20018;-58
2021/06/06 08:36:56;;;;;;;24.65;10.60;;;;;;;;;;4933397;28;20042;-57
2021/06/06 08:39:28;;;;;;;30.38;10.68;;;;;;;;;;4939204;28;20042;-56
2021/06/06 08:42:05;;;;;;;27.02;11.85;;;;;;;;;;4963489;28;20066;-57
2021/06/06 08:44:35;;;;;;;20.42;10.88;;;;;;;;;;4963737;28;20038;-57
2021/06/06 08:47:05;;;;;;;24.15;10.48;;;;;;;;;;4963630;28;20049;-57
2021/06/06 08:49:49;;;;;;;23.83;10.50;;;;;;;;;;4949698;28;20038;-57
2021/06/06 08:52:34;;;;;;;25.13;9.90;;;;;;;;;;4965136;28;20554;-57
2021/06/06 08:55:18;;;;;;;22.25;9.88;;;;;;;;;;4960625;28;20045;-57
2021/06/06 08:57:52;;;;;;;16.92;9.23;;;;;;;;;;4963001;28;20116;-57
2021/06/06 09:00:24;;;;;;;18.75;9.20;;;;;;;;;;4962581;28;20030;-57
2021/06/06 09:02:55;;;;;;;12.82;7.93;;;;;;;;;;4944075;28;20042;-58
2021/06/06 09:05:26;;;;;;;14.65;8.50;;;;;;;;;;4965110;28;20045;-57
2021/06/06 09:07:56;;;;;;;16.50;7.97;;;;;;;;;;4965969;28;20033;-57
2021/06/06 09:10:24;;;;;;;14.98;7.75;;;;;;;;;;4946907;28;20054;-57
2021/06/06 09:12:52;;;;;;;15.32;7.32;;;;;;;;;;4934152;28;20027;-57
2021/06/06 09:15:19;;;;;;;14.77;7.20;;;;;;;;;;4964880;28;20129;-57
2021/06/06 09:17:53;;;;;;;12.13;7.10;;;;;;;;;;4948310;28;21985;-57
2021/06/06 09:20:37;;;;;;;13.20;6.32;;;;;;;;;;4951877;28;20054;-58
2021/06/06 09:23:12;;;;;;;13.90;6.20;;;;;;;;;;4966329;28;20042;-57
2021/06/06 09:25:40;;;;;;;9.70;5.53;;;;;;;;;;4965396;28;20446;-57
2021/06/06 09:28:12;;;;;;;9.18;5.65;;;;;;;;;;4943268;28;20033;-57
2021/06/06 09:30:37;;;;;;;10.52;5.93;;;;;;;;;;4936638;28;20038;-57
2021/06/06 09:33:09;;;;;;;9.90;5.85;;;;;;;;;;4961508;28;20965;-57
2021/06/06 09:35:36;;;;;;;8.50;5.80;;;;;;;;;;4958947;28;20038;-57
2021/06/06 09:38:14;;;;;;;8.40;4.78;;;;;;;;;;4961100;28;20038;-56
2021/06/06 09:40:44;;;;;;;5.82;4.28;;;;;;;;;;4963046;28;20022;-56
2021/06/06 09:43:20;;;;;;;7.35;4.90;;;;;;;;;;4963306;28;20044;-57
2021/06/06 09:45:53;;;;;;;5.28;4.28;;;;;;;;;;4962171;28;20026;-58
2021/06/06 09:48:29;;;;;;;5.70;3.78;;;;;;;;;;4961612;28;20590;-58
2021/06/06 09:51:06;;;;;;;6.82;3.08;;;;;;;;;;4960549;28;20114;-58
2021/06/06 09:53:32;;;;;;;4.20;3.17;;;;;;;;;;4945198;28;20121;-58
2021/06/06 09:56:08;;;;;;;3.72;2.58;;;;;;;;;;4930859;28;20026;-58
2021/06/06 09:58:38;;;;;;;3.23;2.53;;;;;;;;;;4962278;28;20289;-58
2021/06/06 10:01:20;;;;;;;3.58;2.60;;;;;;;;;;4960190;28;20038;-59
2021/06/06 10:03:53;;;;;;;3.00;2.30;;;;;;;;;;4962407;28;20054;-58
2021/06/06 10:06:29;;;;;;;2.33;1.83;;;;;;;;;;4964035;28;20043;-58
2021/06/06 10:08:58;;;;;;;2.53;1.67;;;;;;;;;;4963051;28;20053;-58
2021/06/06 10:11:29;;;;;;;2.03;1.83;;;;;;;;;;4962773;28;20886;-58
2021/06/06 10:13:59;;;;;;;2.45;1.90;;;;;;;;;;4945209;28;20027;-58
2021/06/06 10:16:36;;;;;;;1.88;1.60;;;;;;;;;;4961435;28;20677;-59
2021/06/06 10:19:04;;;;;;;2.42;1.77;;;;;;;;;;4964319;28;20047;-58
2021/06/06 10:21:32;;;;;;;1.95;1.75;;;;;;;;;;4965440;28;20034;-58
2021/06/06 10:24:07;;;;;;;3.22;1.60;;;;;;;;;;4952012;28;20125;-58
2021/06/06 10:26:33;;;;;;;3.00;2.05;;;;;;;;;;4946045;28;20026;-58
2021/06/06 10:29:25;;;;;;;3.65;2.33;;;;;;;;;;4962963;28;20022;-59
2021/06/06 10:31:53;;;;;;;4.00;2.55;;;;;;;;;;4960394;28;20132;-58
2021/06/06 10:34:21;;;;;;;4.70;2.83;;;;;;;;;;4947106;28;20129;-58
2021/06/06 10:36:47;;;;;;;3.45;2.80;;;;;;;;;;4946826;28;20026;-58
2021/06/06 10:39:23;;;;;;;5.43;3.13;;;;;;;;;;4943556;28;20178;-58
2021/06/06 10:41:52;;;;;;;3.40;2.75;;;;;;;;;;4930652;28;20049;-58
2021/06/06 10:44:27;;;;;;;3.95;2.65;;;;;;;;;;4962782;28;20382;-58
2021/06/06 10:46:59;;;;;;;2.33;2.10;;;;;;;;;;4946684;28;20109;-58
2021/06/06 10:49:25;;;;;;;3.08;2.22;;;;;;;;;;4959911;28;20035;-58
2021/06/06 10:52:07;;;;;;;2.88;2.13;;;;;;;;;;4954198;28;20036;-58
2021/06/06 10:54:45;;;;;;;2.40;1.98;;;;;;;;;;4943706;28;20140;-58
2021/06/06 10:57:26;;;;;;;3.40;2.22;;;;;;;;;;4964392;28;20208;-58
2021/06/06 10:59:51;;;;;;;5.20;2.53;;;;;;;;;;4947901;28;20038;-57
2021/06/06 11:02:30;;;;;;;3.05;2.70;;;;;;;;;;4962359;28;20114;-57
2021/06/06 11:05:00;;;;;;;5.35;2.92;;;;;;;;;;4963680;28;22232;-58
2021/06/06 11:07:42;;;;;;;4.18;3.60;;;;;;;;;;4961887;28;20152;-57
2021/06/06 11:10:21;;;;;;;8.07;3.78;;;;;;;;;;4961513;28;20061;-57
2021/06/06 11:12:50;;;;;;;4.68;3.75;;;;;;;;;;4930575;28;20039;-56
2021/06/06 11:15:17;;;;;;;5.75;3.50;;;;;;;;;;4961922;28;20026;-59
2021/06/06 11:17:43;;;;;;;4.82;3.13;;;;;;;;;;4962119;28;20027;-56
2021/06/06 11:20:29;;;;;;;5.15;3.90;;;;;;;;;;4963729;28;20038;-56
2021/06/06 11:22:55;;;;;;;7.78;4.43;;;;;;;;;;4950203;28;20455;-57
2021/06/06 11:25:29;;;;;;;6.35;4.07;;;;;;;;;;4957240;28;20030;-56
2021/06/06 11:28:06;;;;;;;5.20;3.22;;;;;;;;;;4951594;28;20042;-57
2021/06/06 11:30:35;;;;;;;6.57;3.30;;;;;;;;;;4967163;28;20030;-56
2021/06/06 11:33:20;;;;;;;3.95;3.22;;;;;;;;;;4968463;28;20034;-57
2021/06/06 11:35:50;;;;;;;9.02;3.72;;;;;;;;;;4949482;28;20038;-56
2021/06/06 11:38:18;;;;;;;8.40;3.58;;;;;;;;;;4949121;28;20061;-57
2021/06/06 11:40:47;;;;;;;5.22;3.15;;;;;;;;;;4948870;28;20390;-55
2021/06/06 11:43:29;;;;;;;5.38;3.47;;;;;;;;;;4950839;28;20083;-57
2021/06/06 11:46:00;;;;;;;7.60;3.53;;;;;;;;;;4967842;28;20696;-56
2021/06/06 11:48:36;;;;;;;5.78;3.80;;;;;;;;;;4945484;28;20022;-56
2021/06/06 11:51:08;;;;;;;5.38;3.55;;;;;;;;;;4955222;28;20034;-56
2021/06/06 11:53:41;;;;;;;7.82;4.18;;;;;;;;;;4967520;28;21249;-56
2021/06/06 11:56:09;;;;;;;6.43;4.00;;;;;;;;;;4966912;28;22003;-54
2021/06/06 11:58:39;;;;;;;7.30;4.38;;;;;;;;;;4950566;28;20041;-56
2021/06/06 12:01:07;;;;;;;7.70;3.60;;;;;;;;;;4949681;28;20039;-54
2021/06/06 12:03:39;;;;;;;9.27;4.28;;;;;;;;;;4963600;28;20481;-55
2021/06/06 12:06:09;;;;;;;6.72;4.38;;;;;;;;;;4948193;28;20031;-56
2021/06/06 12:08:43;;;;;;;10.40;3.92;;;;;;;;;;4966585;28;20044;-56
2021/06/06 12:11:09;;;;;;;;;;;;;;;;;;4964759;28;20041;-54
2021/06/06 12:13:41;;;;;;;8.90;4.97;;;;;;;;;;4962252;28;20044;-55
2021/06/06 12:16:12;;;;;;;14.27;4.55;;;;;;;;;;4948874;28;20031;-57
2021/06/06 12:18:38;;;;;;;11.13;4.40;;;;;;;;;;4931804;28;20153;-57
2021/06/06 12:21:09;;;;;;;8.65;4.72;;;;;;;;;;4949641;28;20026;-56
2021/06/06 12:23:37;;;;;;;8.10;4.47;;;;;;;;;;4965520;28;20041;-57
2021/06/06 12:26:13;;;;;;;10.00;4.85;;;;;;;;;;4965216;28;20136;-57
2021/06/06 12:28:44;;;;;;;10.63;5.10;;;;;;;;;;4966072;28;20128;-57
2021/06/06 12:31:28;;;;;;;12.75;5.22;;;;;;;;;;4963258;28;20068;-58
2021/06/06 12:33:57;;;;;;;14.13;5.50;;;;;;;;;;4950587;28;20082;-58
2021/06/06 12:36:30;;;;;;;9.93;5.40;;;;;;;;;;4966737;28;20033;-56
2021/06/06 12:38:59;;;;;;;10.75;6.18;;;;;;;;;;4965027;28;20038;-58
2021/06/06 12:41:26;;;;;;;10.75;5.53;;;;;;;;;;4961791;28;20446;-58
2021/06/06 12:43:53;;;;;;;12.35;6.07;;;;;;;;;;4962900;28;20038;-56
2021/06/06 12:46:19;;;;;;;10.90;6.63;;;;;;;;;;4932388;28;20801;-58
2021/06/06 12:49:01;;;;;;;11.25;5.88;;;;;;;;;;4963387;28;20042;-57
2021/06/06 12:51:37;;;;;;;11.52;5.50;;;;;;;;;;4965060;28;20031;-57
2021/06/06 12:54:17;;;;;;;18.27;6.13;;;;;;;;;;4965796;28;20686;-57
2021/06/06 12:56:46;;;;;;;22.73;5.97;;;;;;;;;;4964334;28;20046;-58
2021/06/06 12:59:17;;;;;;;15.80;6.15;;;;;;;;;;4966155;28;20026;-56
2021/06/06 13:01:45;;;;;;;10.52;5.78;;;;;;;;;;4944785;28;20038;-58
2021/06/06 13:04:17;;;;;;;12.38;6.65;;;;;;;;;;4964511;28;20993;-58
2021/06/06 13:06:43;;;;;;;19.17;6.53;;;;;;;;;;4965477;28;20083;-59
2021/06/06 13:09:17;;;;;;;11.32;6.18;;;;;;;;;;4964075;28;21925;-57
2021/06/06 13:11:43;;;;;;;19.48;6.65;;;;;;;;;;4965081;28;20038;-58
2021/06/06 13:14:23;;;;;;;15.10;6.82;;;;;;;;;;4963168;28;20076;-57
2021/06/06 13:16:53;;;;;;;12.02;5.68;;;;;;;;;;4964510;28;20030;-57
2021/06/06 13:19:24;;;;;;;15.35;6.60;;;;;;;;;;4946435;28;20513;-57
2021/06/06 13:21:57;;;;;;;14.13;6.70;;;;;;;;;;4963593;28;20034;-57
2021/06/06 13:24:23;;;;;;;17.52;6.80;;;;;;;;;;4931778;28;20049;-59
2021/06/06 13:26:50;;;;;;;13.80;6.72;;;;;;;;;;4928424;28;20026;-59
2021/06/06 13:29:28;;;;;;;14.32;5.72;;;;;;;;;;4963189;28;20030;-57
2021/06/06 13:31:53;;;;;;;12.85;7.18;;;;;;;;;;4945465;28;20034;-57
2021/06/06 13:34:22;;;;;;;14.95;6.20;;;;;;;;;;4965571;28;20041;-57
2021/06/06 13:36:47;;;;;;;15.63;5.90;;;;;;;;;;4937824;28;20053;-57
2021/06/06 13:39:17;;;;;;;24.25;7.43;;;;;;;;;;4959856;28;20041;-57
2021/06/06 13:41:45;;;;;;;12.50;5.75;;;;;;;;;;4963324;28;20034;-59
2021/06/06 13:44:11;;;;;;;14.90;5.70;;;;;;;;;;4943247;28;21085;-57
2021/06/06 13:46:37;;;;;;;16.27;5.90;;;;;;;;;;4961134;28;20037;-58
2021/06/06 13:49:03;;;;;;;12.23;5.15;;;;;;;;;;4931411;28;20080;-58
2021/06/06 13:51:29;;;;;;;10.60;5.70;;;;;;;;;;4962946;28;20026;-58
2021/06/06 13:53:55;;;;;;;15.10;5.90;;;;;;;;;;4947502;28;20991;-58
2021/06/06 13:56:25;;;;;;;13.27;5.35;;;;;;;;;;4963295;28;21089;-58
2021/06/06 13:58:53;;;;;;;9.52;5.32;;;;;;;;;;4965179;28;20030;-58
2021/06/06 14:01:19;;;;;;;15.88;6.07;;;;;;;;;;4945893;28;20058;-58
2021/06/06 14:03:49;;;;;;;13.52;6.05;;;;;;;;;;4948641;28;20136;-58
2021/06/06 14:06:15;;;;;;;14.82;5.70;;;;;;;;;;4964888;28;20034;-59
2021/06/06 14:08:44;;;;;;;14.30;5.63;;;;;;;;;;4950782;28;20034;-59
2021/06/06 14:11:11;;;;;;;11.48;5.63;;;;;;;;;;4963697;28;20100;-58
2021/06/06 14:13:38;;;;;;;9.90;5.80;;;;;;;;;;4953512;28;20028;-59
2021/06/06 14:16:06;;;;;;;12.15;6.10;;;;;;;;;;4961970;28;20058;-59
2021/06/06 14:18:32;;;;;;;16.48;5.15;;;;;;;;;;4963618;28;20125;-58
2021/06/06 14:20:59;;;;;;;14.55;5.75;;;;;;;;;;4964132;28;20038;-58
2021/06/06 14:23:27;;;;;;;9.88;5.70;;;;;;;;;;4962507;28;20030;-58
2021/06/06 14:25:55;;;;;;;10.20;6.55;;;;;;;;;;4962645;28;20065;-58
2021/06/06 14:28:22;;;;;;;12.82;5.60;;;;;;;;;;4963220;28;20633;-60
2021/06/06 14:30:50;;;;;;;10.40;5.28;;;;;;;;;;4962726;28;20470;-57
2021/06/06 14:33:17;;;;;;;11.07;5.13;;;;;;;;;;4965044;28;20042;-58
2021/06/06 14:35:43;;;;;;;10.02;4.82;;;;;;;;;;4963120;28;21419;-58
2021/06/06 14:38:11;;;;;;;8.68;5.43;;;;;;;;;;4962997;28;20023;-58